Time;durP1;ratioP1;P1;durP2;ratioP2;P2;SDS_P1;SDS_P2;PMS_P1;PMS_P2;Temp;Humidity;BMP_temperature;BMP_pressure;BME280_temperature;BME280_humidity;BME280_pressure;Samples;Min_cycle;Max_cycle;Signal;HPM_P1;HPM_P2
2021/07/11 00:01:51;;;;;;;2.80;2.20;;;;;;;;;;5110784;28;20458;-76
2021/07/11 00:04:18;;;;;;;2.43;2.07;;;;;;;;;;5109743;28;20590;-77
2021/07/11 00:06:45;;;;;;;2.60;2.33;;;;;;;;;;5110257;28;20444;-76
2021/07/11 00:09:14;;;;;;;2.93;2.00;;;;;;;;;;5113008;28;20865;-74
2021/07/11 00:11:41;;;;;;;2.53;1.90;;;;;;;;;;5114475;28;20446;-77
2021/07/11 00:14:08;;;;;;;3.00;2.00;;;;;;;;;;5114665;28;20905;-78
2021/07/11 00:16:35;;;;;;;2.13;1.80;;;;;;;;;;5109547;28;20446;-78
2021/07/11 00:19:03;;;;;;;2.50;2.27;;;;;;;;;;5113671;28;20447;-78
2021/07/11 00:21:30;;;;;;;2.07;1.87;;;;;;;;;;5113842;28;20444;-77
2021/07/11 00:23:57;;;;;;;3.10;1.70;;;;;;;;;;5114648;28;20500;-77
2021/07/11 00:26:25;;;;;;;3.97;2.20;;;;;;;;;;5113396;28;20535;-77
2021/07/11 00:28:53;;;;;;;2.13;1.90;;;;;;;;;;5114234;28;20478;-77
2021/07/11 00:31:20;;;;;;;2.30;2.10;;;;;;;;;;5113762;28;20546;-77
2021/07/11 00:33:47;;;;;;;3.03;2.33;;;;;;;;;;5114147;28;20808;-77
2021/07/11 00:36:14;;;;;;;3.60;2.70;;;;;;;;;;5112962;28;20931;-77
2021/07/11 00:38:41;;;;;;;2.70;1.90;;;;;;;;;;5114267;28;20455;-78
2021/07/11 00:41:09;;;;;;;2.33;2.00;;;;;;;;;;5114089;28;20446;-77
2021/07/11 00:43:37;;;;;;;3.60;2.07;;;;;;;;;;5113831;28;20435;-77
2021/07/11 00:46:04;;;;;;;2.20;1.90;;;;;;;;;;5113841;28;20467;-76
2021/07/11 00:48:32;;;;;;;3.20;2.17;;;;;;;;;;5113025;28;20976;-77
2021/07/11 00:50:59;;;;;;;3.40;2.10;;;;;;;;;;5113740;28;20539;-77
2021/07/11 00:53:26;;;;;;;2.60;1.77;;;;;;;;;;5113396;28;20444;-78
2021/07/11 00:55:53;;;;;;;3.30;2.07;;;;;;;;;;5113738;28;20486;-78
2021/07/11 00:58:20;;;;;;;4.10;1.63;;;;;;;;;;5113424;28;20447;-78
2021/07/11 01:00:50;;;;;;;3.13;2.10;;;;;;;;;;5113601;28;20446;-77
2021/07/11 01:03:26;;;;;;;3.17;2.33;;;;;;;;;;5112225;28;20475;-78
2021/07/11 01:05:53;;;;;;;2.70;2.23;;;;;;;;;;5101769;28;20444;-77
2021/07/11 01:08:25;;;;;;;3.00;1.90;;;;;;;;;;5112865;28;20475;-78
2021/07/11 01:10:54;;;;;;;2.53;2.10;;;;;;;;;;5113725;28;20935;-77
2021/07/11 01:13:22;;;;;;;2.07;1.83;;;;;;;;;;5113258;28;20447;-78
2021/07/11 01:15:52;;;;;;;2.83;1.80;;;;;;;;;;5113526;28;20450;-78
2021/07/11 01:18:21;;;;;;;2.90;1.87;;;;;;;;;;5112286;28;20450;-77
2021/07/11 01:20:50;;;;;;;2.30;2.00;;;;;;;;;;5113074;28;20877;-77
2021/07/11 01:23:25;;;;;;;3.50;2.03;;;;;;;;;;5112686;28;20443;-75
2021/07/11 01:25:54;;;;;;;3.60;2.00;;;;;;;;;;5113374;28;20443;-78
2021/07/11 01:28:22;;;;;;;2.03;1.60;;;;;;;;;;5112441;28;20485;-77
2021/07/11 01:30:50;;;;;;;2.60;2.10;;;;;;;;;;5113516;28;20470;-76
2021/07/11 01:33:18;;;;;;;2.03;1.77;;;;;;;;;;5112550;28;20452;-75
2021/07/11 01:35:46;;;;;;;2.50;2.30;;;;;;;;;;5113048;28;20478;-78
2021/07/11 01:38:14;;;;;;;2.20;1.77;;;;;;;;;;5112617;28;20522;-76
2021/07/11 01:40:42;;;;;;;2.73;1.80;;;;;;;;;;5112773;28;20439;-77
2021/07/11 01:43:12;;;;;;;2.80;2.07;;;;;;;;;;5112856;28;20550;-78
2021/07/11 01:45:40;;;;;;;2.50;1.90;;;;;;;;;;5112893;28;20466;-76
2021/07/11 01:48:07;;;;;;;1.70;1.60;;;;;;;;;;5113073;28;20570;-77
2021/07/11 01:50:35;;;;;;;3.77;2.20;;;;;;;;;;5112292;28;20439;-77
2021/07/11 01:53:03;;;;;;;2.43;2.00;;;;;;;;;;5112914;28;20449;-76
2021/07/11 01:55:30;;;;;;;2.53;1.80;;;;;;;;;;5112132;28;20444;-78
2021/07/11 01:57:57;;;;;;;1.97;1.77;;;;;;;;;;5112592;28;20539;-78
2021/07/11 02:00:26;;;;;;;2.47;2.27;;;;;;;;;;5111938;28;20452;-78
2021/07/11 02:02:53;;;;;;;1.70;1.60;;;;;;;;;;5112519;28;21018;-77
2021/07/11 02:05:20;;;;;;;3.33;1.77;;;;;;;;;;5112328;28;20628;-77
2021/07/11 02:07:47;;;;;;;2.77;2.30;;;;;;;;;;5111179;28;20476;-77
2021/07/11 02:10:16;;;;;;;2.37;2.17;;;;;;;;;;5092819;28;21012;-76
2021/07/11 02:12:46;;;;;;;3.90;2.07;;;;;;;;;;5101036;28;20450;-77
2021/07/11 02:15:13;;;;;;;3.70;2.57;;;;;;;;;;5112550;28;20801;-78
2021/07/11 02:17:43;;;;;;;3.00;2.03;;;;;;;;;;5111433;28;21042;-78
2021/07/11 02:20:11;;;;;;;1.80;1.50;;;;;;;;;;5112106;28;20519;-77
2021/07/11 02:22:42;;;;;;;1.93;1.73;;;;;;;;;;5111507;28;20446;-77
2021/07/11 02:25:09;;;;;;;2.20;2.00;;;;;;;;;;5112283;28;20519;-77
2021/07/11 02:27:36;;;;;;;1.80;1.70;;;;;;;;;;5111650;28;20443;-78
2021/07/11 02:30:10;;;;;;;2.00;1.77;;;;;;;;;;5112104;28;20532;-77
2021/07/11 02:32:43;;;;;;;2.90;2.10;;;;;;;;;;5111788;28;20447;-76
2021/07/11 02:35:12;;;;;;;2.80;2.00;;;;;;;;;;5112164;28;20462;-78
2021/07/11 02:37:41;;;;;;;1.90;1.70;;;;;;;;;;5110941;28;20443;-77
2021/07/11 02:40:09;;;;;;;1.70;1.60;;;;;;;;;;5112349;28;20841;-78
2021/07/11 02:42:36;;;;;;;2.37;2.10;;;;;;;;;;5111159;28;20539;-77
2021/07/11 02:45:04;;;;;;;2.43;1.80;;;;;;;;;;5112184;28;20885;-77
2021/07/11 02:47:31;;;;;;;2.23;2.03;;;;;;;;;;5111243;28;20444;-77
2021/07/11 02:50:00;;;;;;;4.63;2.00;;;;;;;;;;5112035;28;20558;-79
2021/07/11 02:52:29;;;;;;;2.60;2.03;;;;;;;;;;5111171;28;20446;-78
2021/07/11 02:54:58;;;;;;;1.60;1.50;;;;;;;;;;5091771;28;20531;-78
2021/07/11 02:57:27;;;;;;;2.00;1.80;;;;;;;;;;5091201;28;20527;-77
2021/07/11 02:59:55;;;;;;;2.17;1.77;;;;;;;;;;5103342;28;20488;-76
2021/07/11 03:02:23;;;;;;;2.27;2.00;;;;;;;;;;5111435;28;20448;-75
2021/07/11 03:04:51;;;;;;;2.30;2.10;;;;;;;;;;5111994;28;21070;-77
2021/07/11 03:07:18;;;;;;;4.40;2.43;;;;;;;;;;5111527;28;20523;-77
2021/07/11 03:09:47;;;;;;;2.07;1.67;;;;;;;;;;5110645;28;20582;-77
2021/07/11 03:12:14;;;;;;;2.50;1.90;;;;;;;;;;5111503;28;20454;-78
2021/07/11 03:14:42;;;;;;;2.30;1.50;;;;;;;;;;5110648;28;20447;-78
2021/07/11 03:17:10;;;;;;;2.47;2.10;;;;;;;;;;5111839;28;20527;-78
2021/07/11 03:19:39;;;;;;;1.87;1.67;;;;;;;;;;5111375;28;20522;-78
2021/07/11 03:22:06;;;;;;;2.27;1.50;;;;;;;;;;5111927;28;20863;-78
2021/07/11 03:24:34;;;;;;;2.10;1.90;;;;;;;;;;5111446;28;20446;-77
2021/07/11 03:27:03;;;;;;;3.37;1.60;;;;;;;;;;5111544;28;20445;-76
2021/07/11 03:29:33;;;;;;;2.20;2.00;;;;;;;;;;5110849;28;20475;-78
2021/07/11 03:32:00;;;;;;;1.63;1.53;;;;;;;;;;5111753;28;20455;-78
2021/07/11 03:34:28;;;;;;;2.77;1.97;;;;;;;;;;5111090;28;20444;-78
2021/07/11 03:36:56;;;;;;;2.97;2.40;;;;;;;;;;5111561;28;20927;-77
2021/07/11 03:39:25;;;;;;;1.97;1.77;;;;;;;;;;5111348;28;20592;-77
2021/07/11 03:41:52;;;;;;;2.33;2.13;;;;;;;;;;5111134;28;20914;-75
2021/07/11 03:44:21;;;;;;;2.20;2.00;;;;;;;;;;5115147;28;20456;-77
2021/07/11 03:46:50;;;;;;;1.90;1.80;;;;;;;;;;5120486;28;20534;-79
2021/07/11 03:49:18;;;;;;;2.70;1.70;;;;;;;;;;5115339;28;20997;-78
2021/07/11 03:51:47;;;;;;;2.37;2.17;;;;;;;;;;5114471;28;20444;-78
2021/07/11 03:54:16;;;;;;;3.60;2.10;;;;;;;;;;5115214;28;20446;-77
2021/07/11 03:56:44;;;;;;;4.37;2.27;;;;;;;;;;5113977;28;20453;-76
2021/07/11 03:59:12;;;;;;;3.50;2.00;;;;;;;;;;5115352;28;20453;-77
2021/07/11 04:01:41;;;;;;;7.00;2.50;;;;;;;;;;5114194;28;20479;-76
2021/07/11 04:04:14;;;;;;;2.20;2.00;;;;;;;;;;5114787;28;20554;-77
2021/07/11 04:06:42;;;;;;;2.27;2.00;;;;;;;;;;5113977;28;20446;-76
2021/07/11 04:09:09;;;;;;;2.13;1.83;;;;;;;;;;5114808;28;20491;-75
2021/07/11 04:11:37;;;;;;;3.10;2.07;;;;;;;;;;5113615;28;20444;-76
2021/07/11 04:14:05;;;;;;;2.97;1.67;;;;;;;;;;5114899;28;20866;-76
2021/07/11 04:16:33;;;;;;;2.60;2.40;;;;;;;;;;5113739;28;20955;-76
2021/07/11 04:19:02;;;;;;;2.60;1.70;;;;;;;;;;5114732;28;20440;-76
2021/07/11 04:21:30;;;;;;;2.43;2.03;;;;;;;;;;5113958;28;20475;-76
2021/07/11 04:23:57;;;;;;;2.40;2.20;;;;;;;;;;5114909;28;20817;-77
2021/07/11 04:26:25;;;;;;;1.87;1.63;;;;;;;;;;5113796;28;20854;-78
2021/07/11 04:28:54;;;;;;;3.87;1.87;;;;;;;;;;5113726;28;20566;-76
2021/07/11 04:31:21;;;;;;;4.93;2.20;;;;;;;;;;5113817;28;20458;-78
2021/07/11 04:33:48;;;;;;;2.53;1.70;;;;;;;;;;5113688;28;20467;-76
2021/07/11 04:36:17;;;;;;;2.37;1.70;;;;;;;;;;5114125;28;20447;-77
2021/07/11 04:38:44;;;;;;;3.20;2.10;;;;;;;;;;5113824;28;20450;-77
2021/07/11 04:41:12;;;;;;;2.57;2.33;;;;;;;;;;5114528;28;20446;-77
2021/07/11 04:43:39;;;;;;;4.20;2.00;;;;;;;;;;5113427;28;20519;-77
2021/07/11 04:46:06;;;;;;;3.90;1.90;;;;;;;;;;5114102;28;20526;-77
2021/07/11 04:48:33;;;;;;;3.07;2.00;;;;;;;;;;5113767;28;20800;-78
2021/07/11 04:51:00;;;;;;;2.53;2.30;;;;;;;;;;5113554;28;20451;-77
2021/07/11 04:53:29;;;;;;;2.70;1.80;;;;;;;;;;5114030;28;20455;-78
2021/07/11 04:55:57;;;;;;;1.70;1.60;;;;;;;;;;5113703;28;20500;-77
2021/07/11 04:58:24;;;;;;;2.37;2.00;;;;;;;;;;5113949;28;20444;-78
2021/07/11 05:00:51;;;;;;;2.70;1.93;;;;;;;;;;5112836;28;20986;-77
2021/07/11 05:03:18;;;;;;;2.60;2.30;;;;;;;;;;5113510;28;20578;-77
2021/07/11 05:05:45;;;;;;;4.03;2.50;;;;;;;;;;5113225;28;20446;-77
2021/07/11 05:08:12;;;;;;;2.50;2.30;;;;;;;;;;5114106;28;20446;-77
2021/07/11 05:10:41;;;;;;;2.60;2.40;;;;;;;;;;5112853;28;20562;-74
2021/07/11 05:13:08;;;;;;;2.60;2.10;;;;;;;;;;5113221;28;20955;-75
2021/07/11 05:15:35;;;;;;;2.67;2.00;;;;;;;;;;5112258;28;20974;-74
2021/07/11 05:18:02;;;;;;;3.53;2.40;;;;;;;;;;5102156;28;20456;-75
2021/07/11 05:20:30;;;;;;;2.07;1.80;;;;;;;;;;5093623;28;20458;-74
2021/07/11 05:22:57;;;;;;;4.30;1.97;;;;;;;;;;5104813;28;20535;-75
2021/07/11 05:25:24;;;;;;;2.60;2.07;;;;;;;;;;5113311;28;20440;-75
2021/07/11 05:27:52;;;;;;;2.53;1.80;;;;;;;;;;5103178;28;20732;-75
2021/07/11 05:30:20;;;;;;;1.97;1.70;;;;;;;;;;5101666;28;20475;-75
2021/07/11 05:32:47;;;;;;;2.07;1.87;;;;;;;;;;5112281;28;20887;-75
2021/07/11 05:35:15;;;;;;;2.73;1.93;;;;;;;;;;5113147;28;20452;-74
2021/07/11 05:37:42;;;;;;;2.13;1.93;;;;;;;;;;5112283;28;20446;-74
2021/07/11 05:40:09;;;;;;;2.00;1.80;;;;;;;;;;5112952;28;20447;-75
2021/07/11 05:42:37;;;;;;;2.87;2.27;;;;;;;;;;5112328;28;20535;-75
2021/07/11 05:45:06;;;;;;;1.90;1.70;;;;;;;;;;5112720;28;20440;-75
2021/07/11 05:47:33;;;;;;;1.77;1.67;;;;;;;;;;5111924;28;20436;-74
2021/07/11 05:50:00;;;;;;;3.77;2.07;;;;;;;;;;5112565;28;20475;-77
2021/07/11 05:52:27;;;;;;;1.77;1.67;;;;;;;;;;5112929;28;20534;-76
2021/07/11 05:54:54;;;;;;;2.30;2.10;;;;;;;;;;5112199;28;20527;-76
2021/07/11 05:57:21;;;;;;;2.20;1.90;;;;;;;;;;5112635;28;20567;-76
2021/07/11 05:59:49;;;;;;;2.43;1.87;;;;;;;;;;5111985;28;20447;-74
2021/07/11 06:02:17;;;;;;;6.97;1.93;;;;;;;;;;5112415;28;20550;-76
2021/07/11 06:04:44;;;;;;;3.40;2.00;;;;;;;;;;5111075;28;20482;-75
2021/07/11 06:07:12;;;;;;;1.90;1.80;;;;;;;;;;5111538;28;20444;-76
2021/07/11 06:09:39;;;;;;;3.50;1.87;;;;;;;;;;5111712;28;20834;-75
2021/07/11 06:12:06;;;;;;;2.00;1.80;;;;;;;;;;5112236;28;20447;-76
2021/07/11 06:14:34;;;;;;;2.57;2.07;;;;;;;;;;5112031;28;20967;-75
2021/07/11 06:17:01;;;;;;;2.37;1.77;;;;;;;;;;5111963;28;20458;-75
2021/07/11 06:19:30;;;;;;;2.77;2.03;;;;;;;;;;5112317;28;20449;-75
2021/07/11 06:21:57;;;;;;;2.23;2.03;;;;;;;;;;5111709;28;20440;-75
2021/07/11 06:24:24;;;;;;;2.40;2.20;;;;;;;;;;5110286;28;20534;-75
2021/07/11 06:26:51;;;;;;;4.40;2.43;;;;;;;;;;5111268;28;20447;-75
2021/07/11 06:29:18;;;;;;;4.70;1.70;;;;;;;;;;5111529;28;20479;-75
2021/07/11 06:31:45;;;;;;;2.70;2.13;;;;;;;;;;5110882;28;20458;-73
2021/07/11 06:34:12;;;;;;;2.30;1.70;;;;;;;;;;5112331;28;20444;-73
2021/07/11 06:36:41;;;;;;;1.80;1.70;;;;;;;;;;5111403;28;20436;-74
2021/07/11 06:39:08;;;;;;;2.30;2.10;;;;;;;;;;5111756;28;20436;-76
2021/07/11 06:41:35;;;;;;;2.37;2.17;;;;;;;;;;5111833;28;20446;-73
2021/07/11 06:44:03;;;;;;;2.13;1.70;;;;;;;;;;5110919;28;20599;-75
2021/07/11 06:46:30;;;;;;;2.57;1.93;;;;;;;;;;5111579;28;20448;-75
2021/07/11 06:48:57;;;;;;;2.00;1.77;;;;;;;;;;5110771;28;20471;-76
2021/07/11 06:51:24;;;;;;;2.60;2.30;;;;;;;;;;5111912;28;20523;-76
2021/07/11 06:53:53;;;;;;;5.27;2.80;;;;;;;;;;5110930;28;20450;-76
2021/07/11 06:56:20;;;;;;;2.50;2.00;;;;;;;;;;5111312;28;20987;-74
2021/07/11 06:58:47;;;;;;;3.17;1.90;;;;;;;;;;5110812;28;20431;-74
2021/07/11 07:01:14;;;;;;;1.70;1.53;;;;;;;;;;5111829;28;20440;-76
2021/07/11 07:03:41;;;;;;;3.10;2.50;;;;;;;;;;5110623;28;20555;-75
2021/07/11 07:06:09;;;;;;;2.33;2.13;;;;;;;;;;5110958;28;20443;-74
2021/07/11 07:08:36;;;;;;;2.27;2.00;;;;;;;;;;5111780;28;20438;-75
2021/07/11 07:11:04;;;;;;;3.20;2.17;;;;;;;;;;5111562;28;20471;-74
2021/07/11 07:13:32;;;;;;;2.70;1.77;;;;;;;;;;5111668;28;20526;-74
2021/07/11 07:15:59;;;;;;;2.03;1.73;;;;;;;;;;5111192;28;20462;-75
2021/07/11 07:18:26;;;;;;;2.40;2.20;;;;;;;;;;5115708;28;20446;-75
2021/07/11 07:20:53;;;;;;;2.17;1.73;;;;;;;;;;5115284;28;20455;-75
2021/07/11 07:23:20;;;;;;;2.00;1.80;;;;;;;;;;5118318;27;20438;-75
2021/07/11 07:25:47;;;;;;;2.30;1.97;;;;;;;;;;5115191;28;20518;-75
2021/07/11 07:28:16;;;;;;;2.10;1.90;;;;;;;;;;5114166;28;20949;-75
2021/07/11 07:30:43;;;;;;;2.53;2.20;;;;;;;;;;5113204;28;20890;-74
2021/07/11 07:33:10;;;;;;;1.90;1.50;;;;;;;;;;5115504;28;20440;-75
2021/07/11 07:35:38;;;;;;;2.83;2.10;;;;;;;;;;5115447;28;20435;-75
2021/07/11 07:38:06;;;;;;;3.60;2.10;;;;;;;;;;5115617;28;20427;-74
2021/07/11 07:40:34;;;;;;;2.90;2.00;;;;;;;;;;5115381;28;20948;-72
2021/07/11 07:43:01;;;;;;;1.63;1.40;;;;;;;;;;5114892;28;20443;-74
2021/07/11 07:45:30;;;;;;;3.00;2.17;;;;;;;;;;5114955;28;20467;-71
2021/07/11 07:47:57;;;;;;;3.60;1.67;;;;;;;;;;5114647;28;20526;-73
2021/07/11 07:50:24;;;;;;;1.50;1.40;;;;;;;;;;5115036;28;20558;-74
2021/07/11 07:52:51;;;;;;;1.40;1.30;;;;;;;;;;5114278;28;20446;-73
2021/07/11 07:55:19;;;;;;;2.10;1.90;;;;;;;;;;5114799;28;20530;-76
2021/07/11 07:57:46;;;;;;;1.80;1.70;;;;;;;;;;5114331;28;20455;-75
2021/07/11 08:00:15;;;;;;;4.70;2.57;;;;;;;;;;5114641;28;20795;-75
2021/07/11 08:02:43;;;;;;;2.70;2.17;;;;;;;;;;5108749;27;20546;-75
2021/07/11 08:05:11;;;;;;;1.97;1.77;;;;;;;;;;5115349;27;20591;-75
2021/07/11 08:07:38;;;;;;;1.67;1.57;;;;;;;;;;5103392;28;20531;-75
2021/07/11 08:10:07;;;;;;;3.17;2.10;;;;;;;;;;5111592;27;20516;-74
2021/07/11 08:12:34;;;;;;;6.03;2.03;;;;;;;;;;5116554;27;20443;-72
2021/07/11 08:15:01;;;;;;;2.37;1.57;;;;;;;;;;5109596;28;20495;-74
2021/07/11 08:17:28;;;;;;;2.30;1.90;;;;;;;;;;5119731;27;20450;-75
2021/07/11 08:19:57;;;;;;;1.97;1.50;;;;;;;;;;5113822;27;20558;-74
2021/07/11 08:22:24;;;;;;;1.77;1.67;;;;;;;;;;5109266;28;20452;-74
2021/07/11 08:24:51;;;;;;;2.33;1.97;;;;;;;;;;5110609;27;20874;-74
2021/07/11 08:27:19;;;;;;;2.57;1.30;;;;;;;;;;5109362;27;20535;-73
2021/07/11 08:29:50;;;;;;;1.87;1.67;;;;;;;;;;5108182;27;20800;-75
2021/07/11 08:32:17;;;;;;;4.30;3.90;;;31.90;1.00;;;;;;5104299;28;20515;-75
2021/07/11 08:34:44;;;;;;;2.90;1.50;;;;;;;;;;5107798;28;20912;-75
2021/07/11 08:37:13;;;;;;;1.50;1.40;;;;;;;;;;5108632;28;20960;-74
2021/07/11 08:39:40;;;;;;;1.77;1.47;;;;;;;;;;5108893;28;20874;-74
2021/07/11 08:42:08;;;;;;;2.77;1.70;;;;;;;;;;5108817;28;20546;-75
2021/07/11 08:44:36;;;;;;;2.30;1.67;;;;;;;;;;5105460;28;20447;-74
2021/07/11 08:47:04;;;;;;;2.77;1.60;;;;;;;;;;5109012;28;20813;-74
2021/07/11 08:49:31;;;;;;;2.70;2.23;;;;;;;;;;5108141;28;20452;-73
2021/07/11 08:51:59;;;;;;;2.60;2.07;;;;;;;;;;5107586;28;20453;-74
2021/07/11 08:54:27;;;;;;;2.00;1.60;;;;;;;;;;5103141;28;20448;-78
2021/07/11 08:56:57;;;;;;;1.80;1.70;;;;;;;;;;5109707;27;20539;-74
2021/07/11 08:59:24;;;;;;;2.40;1.60;;;;;;;;;;5107997;28;20455;-74
2021/07/11 09:01:51;;;;;;;1.73;1.63;;;;;;;;;;5110504;27;20486;-79
2021/07/11 09:04:18;;;;;;;1.80;1.50;;;;;;;;;;5109313;28;20558;-72
2021/07/11 09:06:47;;;;;;;1.70;1.60;;;;;;;;;;5110440;28;20454;-73
2021/07/11 09:09:22;;;;;;;2.30;1.80;;;;;;;;;;5111063;28;20939;-73
2021/07/11 09:11:52;;;;;;;3.17;1.57;;;;;;;;;;5109265;28;20471;-74
2021/07/11 09:14:20;;;;;;;1.90;1.70;;;;;;;;;;5111112;28;20443;-74
2021/07/11 09:16:47;;;;;;;1.93;1.70;;;;;;;;;;5109988;28;20543;-72
2021/07/11 09:19:25;;;;;;;2.07;1.87;;;;;;;;;;5110632;28;20591;-73
2021/07/11 09:21:56;;;;;;;4.17;1.90;;;;;;;;;;5109236;28;20440;-73
2021/07/11 09:24:23;;;;;;;8.30;7.57;;;;;;;;;;5107434;28;20457;-74
2021/07/11 09:26:52;;;;;;;2.30;1.67;;;;;;;;;;5106609;28;20442;-73
2021/07/11 09:29:28;;;;;;;2.30;2.10;;;;;;;;;;5117338;27;20435;-74
2021/07/11 09:31:56;;;;;;;1.77;1.67;;;;;;;;;;5109836;28;20916;-74
2021/07/11 09:34:23;;;;;;;1.73;1.63;;;;;;;;;;5107864;28;20951;-75
2021/07/11 09:37:03;;;;;;;2.37;1.20;;;;;;;;;;5109558;28;20944;-75
2021/07/11 09:39:30;;;;;;;1.97;1.37;;;;;;;;;;5107571;28;20512;-74
2021/07/11 09:42:01;;;;;;;2.20;1.90;;;;;;;;;;5101573;28;21019;-75
2021/07/11 09:44:38;;;;;;;1.93;1.57;;;;;;;;;;5098721;28;20440;-75
2021/07/11 09:47:15;;;;;;;2.23;1.90;;;;;;;;;;5103171;28;22188;-75
2021/07/11 09:49:42;;;;;;;2.33;1.50;;;;;;;;;;5099652;28;20655;-73
2021/07/11 09:52:09;;;;;;;1.83;1.70;;;;;;;;;;5110325;28;20479;-75
2021/07/11 09:54:36;;;;;;;2.87;1.70;;;;;;;;;;5113215;27;20522;-75
2021/07/11 09:57:10;;;;;;;1.90;1.70;;;;;;;;;;5117287;27;20927;-74
2021/07/11 09:59:37;;;;;;;4.73;2.80;;;;;;;;;;5109856;28;20432;-73
2021/07/11 10:02:04;;;;;;;1.93;1.57;;;;;;;;;;5109323;28;20452;-77
2021/07/11 10:04:33;;;;;;;1.67;1.40;;;;;;;;;;5110355;28;20471;-78
2021/07/11 10:07:00;;;;;;;1.77;1.67;;;;;;;;;;5107472;28;20448;-75
2021/07/11 10:09:27;;;;;;;2.70;1.80;;;;;;;;;;5110290;28;20535;-78
2021/07/11 10:11:54;;;;;;;2.80;1.87;;;;;;;;;;5104570;28;20479;-77
2021/07/11 10:14:23;;;;;;;2.37;2.17;;;;;;;;;;5109873;28;20539;-77
2021/07/11 10:16:50;;;;;;;2.00;1.90;;;;;;;;;;5105754;28;20452;-77
2021/07/11 10:19:17;;;;;;;1.93;1.73;;;;;;;;;;5109488;28;20446;-77
2021/07/11 10:21:47;;;;;;;1.30;1.20;;;;;;;;;;5109538;28;20472;-76
2021/07/11 10:24:21;;;;;;;3.10;1.80;;;;;;;;;;5088556;28;20453;-78
2021/07/11 10:26:48;;;;;;;1.57;1.47;;;;;;;;;;5107171;28;20924;-75
2021/07/11 10:29:16;;;;;;;2.20;2.00;;;;;;;;;;5109251;28;20486;-77
2021/07/11 10:31:45;;;;;;;2.20;1.80;;;;;;;;;;5109569;28;20601;-77
2021/07/11 10:34:13;;;;;;;1.70;1.60;;;;;;;;;;5099692;28;20502;-75
2021/07/11 10:36:41;;;;;;;1.80;1.67;;;;;;;;;;5106865;28;20452;-78
2021/07/11 10:39:10;;;;;;;2.10;1.73;;;;;;;;;;5108827;28;20447;-77
2021/07/11 10:41:47;;;;;;;1.73;1.63;;;;;;;;;;5097128;28;20453;-78
2021/07/11 10:44:19;;;;;;;1.67;1.50;;;;;;;;;;5095743;28;20438;-75
2021/07/11 10:46:52;;;;;;;3.00;2.03;;;;;;;;;;5109538;28;20499;-76
2021/07/11 10:49:20;;;;;;;4.70;1.60;;;;;;;;;;5107666;28;20444;-77
2021/07/11 10:51:48;;;;;;;2.07;1.43;;;;;;;;;;5107770;28;20475;-76
2021/07/11 10:54:23;;;;;;;2.10;1.67;;;;;;;;;;5108538;28;20458;-76
2021/07/11 10:56:50;;;;;;;2.60;2.40;;;;;;;;;;5104737;28;20437;-77
2021/07/11 10:59:27;;;;;;;3.17;2.50;;;;;;;;;;5108990;28;20442;-73
2021/07/11 11:01:56;;;;;;;2.27;1.80;;;;;;;;;;5106652;28;20439;-73
2021/07/11 11:04:23;;;;;;;2.10;1.57;;;;;;;;;;5108614;28;20979;-73
2021/07/11 11:06:51;;;;;;;1.80;1.60;;;;;;;;;;5108325;28;20907;-73
2021/07/11 11:09:37;;;;;;;3.40;2.43;;;;;;;;;;5109336;28;20464;-73
2021/07/11 11:12:17;;;;;;;2.20;2.00;;;;;;;;;;5108695;28;20475;-73
2021/07/11 11:14:50;;;;;;;1.93;1.50;;;;;;;;;;5109550;28;20419;-73
2021/07/11 11:17:27;;;;;;;2.77;2.17;;;;;;;;;;5108634;28;20420;-73
2021/07/11 11:19:54;;;;;;;1.60;1.50;;;;;;;;;;5117862;28;20434;-74
2021/07/11 11:22:22;;;;;;;2.10;1.60;;;;;;;;;;5112384;28;20476;-73
2021/07/11 11:24:49;;;;;;;2.50;1.67;;;;;;;;;;5098884;28;20519;-73
2021/07/11 11:27:16;;;;;;;1.57;1.47;;;;;;;;;;5109162;28;20436;-73
2021/07/11 11:29:43;;;;;;;1.50;1.40;;;;;;;;;;5108904;28;20527;-73
2021/07/11 11:32:14;;;;;;;1.60;1.50;;;;;;;;;;5102848;28;20963;-75
2021/07/11 11:34:49;;;;;;;2.00;1.70;;;;;;;;;;5108383;28;20837;-75
2021/07/11 11:37:17;;;;;;;2.30;1.83;;;;;;;;;;5104756;28;20435;-75
2021/07/11 11:39:44;;;;;;;1.50;1.40;;;;;;;;;;5109165;28;20920;-76
2021/07/11 11:42:11;;;;;;;2.07;1.63;;;;;;;;;;5107850;28;20440;-76
2021/07/11 11:44:38;;;;;;;1.50;1.40;;;;;;;;;;5108923;28;20458;-76
2021/07/11 11:47:05;;;;;;;2.00;1.77;;;;;;;;;;5108335;28;20787;-76
2021/07/11 11:49:33;;;;;;;4.17;2.23;;;;;;;;;;5108860;28;20435;-76
2021/07/11 11:52:02;;;;;;;2.43;1.90;;;;;;;;;;5108653;28;20471;-77
2021/07/11 11:54:30;;;;;;;2.33;1.97;;;;;;;;;;5108279;28;20523;-76
2021/07/11 11:56:58;;;;;;;1.67;1.53;;;;;;;;;;5108316;28;20435;-76
2021/07/11 11:59:26;;;;;;;1.97;1.77;;;;;;;;;;5108789;28;20431;-76
2021/07/11 12:01:57;;;;;;;2.00;1.80;;;;;;;;;;5107992;28;20459;-75
2021/07/11 12:04:25;;;;;;;2.73;2.03;;;;;;;;;;5111000;28;20471;-76
2021/07/11 12:06:52;;;;;;;1.93;1.73;;;;;;;;;;5111652;28;20447;-74
2021/07/11 12:09:24;;;;;;;2.37;1.43;;;;;;;;;;5112492;28;20443;-75
2021/07/11 12:11:57;;;;;;;1.53;1.43;;;;;;;;;;5111715;28;20550;-75
2021/07/11 12:14:25;;;;;;;2.93;2.00;;;;;;;;;;5111984;28;20931;-75
2021/07/11 12:16:57;;;;;;;2.03;1.70;;;;;;;;;;5110152;28;20960;-76
2021/07/11 12:19:24;;;;;;;2.40;1.87;;;;;;;;;;5112474;28;20434;-76
2021/07/11 12:21:53;;;;;;;2.07;1.60;;;;;;;;;;5111910;28;20450;-75
2021/07/11 12:24:24;;;;;;;2.53;1.80;;;;;;;;;;5110451;28;20444;-75
2021/07/11 12:26:53;;;;;;;2.07;1.87;;;;;;;;;;5107693;28;20780;-74
2021/07/11 12:29:29;;;;;;;1.70;1.60;;;;;;;;;;5111035;28;20451;-74
2021/07/11 12:31:57;;;;;;;1.83;1.60;;;;;;;;;;5105138;28;20545;-74
2021/07/11 12:34:24;;;;;;;3.83;1.63;;;;;;;;;;5100841;28;20472;-73
2021/07/11 12:36:53;;;;;;;2.20;2.00;;;;;;;;;;5107229;28;20436;-74
2021/07/11 12:39:23;;;;;;;3.47;3.17;;;;;;;;;;5111055;28;20959;-74
2021/07/11 12:41:51;;;;;;;1.90;1.77;;;;;;;;;;5110801;28;20440;-74
2021/07/11 12:44:19;;;;;;;2.10;1.90;;;;;;;;;;5111639;28;20444;-73
2021/07/11 12:46:47;;;;;;;2.80;1.63;;;;;;;;;;5111331;28;20444;-73
2021/07/11 12:49:15;;;;;;;2.40;1.53;;;;;;;;;;5109791;28;20527;-74
2021/07/11 12:51:48;;;;;;;2.00;1.50;;;;;;;;;;5111074;28;20514;-74
2021/07/11 12:54:16;;;;;;;2.23;2.03;;;;;;;;;;5110526;28;20883;-74
2021/07/11 12:56:53;;;;;;;2.70;1.80;;;;;;;;;;5110929;28;20634;-73
2021/07/11 12:59:27;;;;;;;1.97;1.77;;;;;;;;;;5111158;28;20896;-73
2021/07/11 13:02:01;;;;;;;2.00;1.80;;;;;;;;;;5110049;28;20454;-74
2021/07/11 13:04:28;;;;;;;1.43;1.33;;;;;;;;;;5100227;28;20471;-74
2021/07/11 13:07:01;;;;;;;2.30;1.67;;;;;;;;;;5109239;28;20548;-76
2021/07/11 13:09:28;;;;;;;2.50;2.30;;;;;;;;;;5111096;28;20435;-75
2021/07/11 13:11:56;;;;;;;1.90;1.70;;;;;;;;;;5109476;28;20482;-74
2021/07/11 13:14:23;;;;;;;2.43;2.23;;;;;;;;;;5109758;28;20566;-74
2021/07/11 13:16:51;;;;;;;3.10;2.00;;;;;;;;;;5110438;28;20526;-74
2021/07/11 13:19:18;;;;;;;2.67;1.83;;;;;;;;;;5108363;28;20447;-74
2021/07/11 13:21:45;;;;;;;1.83;1.70;;;;;;;;;;5110467;28;20505;-75
2021/07/11 13:24:13;;;;;;;2.80;2.10;;;;;;;;;;5108084;28;20447;-75
2021/07/11 13:26:40;;;;;;;2.10;1.70;;;;;;;;;;5110951;28;20455;-74
2021/07/11 13:29:08;;;;;;;1.93;1.80;;;;;;;;;;5096853;28;20531;-72
2021/07/11 13:31:36;;;;;;;2.60;2.10;;;;;;;;;;5109909;28;20566;-76
2021/07/11 13:34:05;;;;;;;4.00;3.27;;;;;;;;;;5089774;28;20682;-75
2021/07/11 13:36:32;;;;;;;2.73;2.10;;;;;;;;;;5104628;28;20448;-77
2021/07/11 13:38:59;;;;;;;2.37;1.80;;;;;;;;;;5110355;28;20467;-75
2021/07/11 13:41:29;;;;;;;2.33;2.13;;;;;;;;;;5110746;27;20446;-73
2021/07/11 13:43:56;;;;;;;1.87;1.77;;;;;;;;;;5110387;28;20456;-72
2021/07/11 13:46:25;;;;;;;2.07;1.87;;;;;;;;;;5111476;28;20539;-78
2021/07/11 13:48:52;;;;;;;2.60;1.67;;;;;;;;;;5111151;28;20539;-78
2021/07/11 13:51:19;;;;;;;4.23;2.20;;;;;;;;;;5126163;27;20582;-78
2021/07/11 13:53:46;;;;;;;2.37;2.07;;;;;;;;;;5128770;27;20937;-73
2021/07/11 13:56:13;;;;;;;3.80;2.10;;;;;;;;;;5124407;27;20526;-74
2021/07/11 13:58:41;;;;;;;2.20;2.00;;;;;;;;;;5129125;27;20768;-73
2021/07/11 14:01:08;;;;;;;3.33;1.90;;;;;;;;;;5109428;28;20482;-74
2021/07/11 14:03:36;;;;;;;2.40;2.20;;;;;;;;;;5108696;28;20470;-73
2021/07/11 14:06:04;;;;;;;1.50;1.40;;;;;;;;;;5108466;28;20527;-78
2021/07/11 14:08:31;;;;;;;1.50;1.20;;;;;;;;;;5108311;28;20450;-78
2021/07/11 14:10:58;;;;;;;2.17;1.97;;;;;;;;;;5109806;28;20444;-73
2021/07/11 14:13:25;;;;;;;2.10;1.50;;;20.50;99.90;;;;;;5108237;28;20595;-74
2021/07/11 14:15:52;;;;;;;4.00;1.30;;;26.10;99.90;;;;;;5109883;28;20515;-74
2021/07/11 14:18:19;;;;;;;3.23;1.80;;;25.90;99.90;;;;;;5109043;28;20435;-74
2021/07/11 14:20:47;;;;;;;2.97;1.57;;;26.00;99.90;;;;;;5109446;27;20450;-74
2021/07/11 14:23:14;;;;;;;4.03;2.40;;;;;;;;;;5107383;28;20447;-74
2021/07/11 14:25:41;;;;;;;3.10;2.00;;;;;;;;;;5111265;27;20449;-73
2021/07/11 14:28:09;;;;;;;1.88;1.65;;;;;;;;;;5106279;28;20200;-73
2021/07/11 14:30:36;;;;;;;1.40;1.30;;;;;;;;;;5108915;28;20288;-74
2021/07/11 14:33:03;;;;;;;1.65;1.55;;;;;;;;;;5106773;28;20209;-74
2021/07/11 14:35:31;;;;;;;1.80;1.70;;;;;;;;;;5110295;28;20189;-74
2021/07/11 14:37:59;;;;;;;1.75;1.40;;;;;;;;;;5109530;28;20193;-73
2021/07/11 14:40:28;;;;;;;1.33;1.23;;;26.10;99.90;;;;;;5113721;28;20284;-74
2021/07/11 14:42:55;;;;;;;3.60;1.50;;;30.60;58.90;;;;;;5114385;28;20205;-74
2021/07/11 14:45:22;;;;;;;1.55;1.45;;;31.40;38.20;;;;;;5114890;28;20645;-74
2021/07/11 14:47:49;;;;;;;2.28;1.58;;;;;;;;;;5114220;28;20280;-73